createdAt,value
2018-10-18T00:00:00.356Z,22.00
2018-10-18T00:01:00.239Z,22.00
2018-10-18T00:02:00.239Z,22.02
2018-10-18T00:03:00.146Z,22.03
2018-10-18T00:04:00.107Z,21.99
2018-10-18T00:05:00.055Z,21.94
2018-10-18T00:06:00.070Z,22.07
2018-10-18T00:06:59.963Z,22.03
2018-10-18T00:07:59.922Z,22.03
2018-10-18T00:08:59.871Z,21.98
2018-10-18T00:09:59.875Z,22.05
2018-10-18T00:10:59.780Z,21.96
2018-10-18T00:11:59.750Z,22.03
2018-10-18T00:13:00.004Z,22.02
2018-10-18T00:13:59.653Z,22.03
2018-10-18T00:14:59.597Z,21.96
2018-10-18T00:15:59.551Z,22.00
2018-10-18T00:16:59.504Z,22.00
2018-10-18T00:17:59.478Z,22.03
2018-10-18T00:18:59.413Z,22.05
2018-10-18T00:19:59.389Z,21.99
2018-10-18T00:20:59.321Z,22.03
2018-10-18T00:21:59.276Z,21.92
2018-10-18T00:22:59.230Z,21.92
2018-10-18T00:23:59.193Z,22.02
2018-10-18T00:24:59.138Z,22.00
2018-10-18T00:25:59.106Z,22.06
2018-10-18T00:26:59.047Z,21.99
2018-10-18T00:27:59.001Z,21.91
2018-10-18T00:28:58.955Z,21.96
2018-10-18T00:29:58.964Z,22.00
2018-10-18T00:30:58.863Z,21.99
2018-10-18T00:31:58.823Z,22.02
2018-10-18T00:32:58.772Z,22.00
2018-10-18T00:33:58.726Z,22.03
2018-10-18T00:34:58.680Z,22.02
2018-10-18T00:35:58.654Z,22.00
2018-10-18T00:36:58.588Z,22.12
2018-10-18T00:37:58.589Z,21.99
2018-10-18T00:38:58.501Z,22.09
2018-10-18T00:39:58.452Z,21.98
2018-10-18T00:40:58.405Z,22.09
2018-10-18T00:41:58.372Z,21.99
2018-10-18T00:42:58.314Z,22.09
2018-10-18T00:43:58.326Z,21.99
2018-10-18T00:44:58.222Z,22.02
2018-10-18T00:45:58.176Z,21.98
2018-10-18T00:46:58.131Z,22.00
2018-10-18T00:47:58.093Z,22.02
2018-10-18T00:48:58.038Z,22.06
2018-10-18T00:49:58.019Z,22.06
2018-10-18T00:50:57.947Z,21.99
2018-10-18T00:51:57.902Z,21.98
2018-10-18T00:52:57.856Z,21.94
2018-10-18T00:53:57.825Z,21.90
2018-10-18T00:54:57.765Z,21.92
2018-10-18T00:55:57.736Z,22.03
2018-10-18T00:56:57.676Z,21.99
2018-10-18T00:57:57.627Z,22.05
2018-10-18T00:58:57.581Z,21.99
2018-10-18T00:59:57.586Z,21.98
2018-10-18T01:00:57.489Z,22.02
2018-10-18T01:01:57.484Z,22.03
2018-10-18T01:02:57.398Z,21.99
2018-10-18T01:03:57.353Z,21.99
2018-10-18T01:04:57.306Z,21.96
2018-10-18T01:05:57.329Z,22.07
2018-10-18T01:06:57.221Z,21.92
2018-10-18T01:07:57.180Z,22.03
2018-10-18T01:08:57.122Z,21.96
2018-10-18T01:09:57.077Z,21.92
2018-10-18T01:10:57.031Z,21.96
2018-10-18T01:11:57.058Z,21.98
2018-10-18T01:12:56.945Z,22.00
2018-10-18T01:13:56.924Z,22.00
2018-10-18T01:14:56.848Z,22.00
2018-10-18T01:15:56.803Z,21.99
2018-10-18T01:16:57.664Z,22.02
2018-10-18T01:17:57.031Z,22.03
2018-10-18T01:18:56.981Z,21.92
2018-10-18T01:19:56.970Z,21.94
2018-10-18T01:20:56.576Z,21.99
2018-10-18T01:21:56.527Z,22.07
2018-10-18T01:22:56.483Z,21.92
2018-10-18T01:23:56.448Z,21.94
2018-10-18T01:24:56.389Z,21.94
2018-10-18T01:25:56.485Z,22.00
2018-10-18T01:26:56.298Z,21.98
2018-10-18T01:27:56.253Z,22.00
2018-10-18T01:28:56.206Z,21.96
2018-10-18T01:29:56.184Z,22.03
2018-10-18T01:30:56.115Z,21.98
2018-10-18T01:31:56.089Z,21.96
2018-10-18T01:32:56.023Z,21.98
2018-10-18T01:33:55.977Z,22.06
2018-10-18T01:34:55.932Z,21.92
2018-10-18T01:35:55.901Z,21.94
2018-10-18T01:36:55.840Z,21.91
2018-10-18T01:37:55.825Z,21.92
2018-10-18T01:38:55.748Z,22.03
2018-10-18T01:39:55.703Z,21.92
2018-10-18T01:40:55.656Z,21.98
2018-10-18T01:41:55.662Z,22.03
2018-10-18T01:42:55.568Z,21.99
2018-10-18T01:43:55.550Z,21.98
2018-10-18T01:44:55.473Z,21.91
2018-10-18T01:45:55.427Z,21.88
2018-10-18T01:46:55.385Z,21.92
2018-10-18T01:47:55.386Z,21.98
2018-10-18T01:48:55.291Z,22.00
2018-10-18T01:49:55.279Z,22.05
2018-10-18T01:50:55.198Z,21.90
2018-10-18T01:51:55.153Z,21.96
2018-10-18T01:52:55.107Z,21.96
2018-10-18T01:53:55.118Z,22.00
2018-10-18T01:54:55.015Z,21.99
2018-10-18T01:55:55.010Z,21.99
2018-10-18T01:56:54.923Z,22.00
2018-10-18T01:57:54.877Z,21.98
2018-10-18T01:58:54.834Z,21.94
2018-10-18T01:59:54.789Z,22.03
2018-10-18T02:00:54.741Z,21.92
2018-10-18T02:01:54.734Z,21.91
2018-10-18T02:02:54.648Z,22.00
2018-10-18T02:03:54.607Z,22.03
2018-10-18T02:04:54.556Z,21.98
2018-10-18T02:05:54.550Z,21.92
2018-10-18T02:06:54.465Z,21.92
2018-10-18T02:07:54.471Z,21.90
2018-10-18T02:08:54.376Z,22.03
2018-10-18T02:09:54.328Z,21.92
2018-10-18T02:10:54.281Z,21.96
2018-10-18T02:11:54.243Z,21.91
2018-10-18T02:12:54.190Z,21.91
2018-10-18T02:13:54.149Z,21.99
2018-10-18T02:14:54.099Z,22.03
2018-10-18T02:15:54.054Z,22.00
2018-10-18T02:16:54.006Z,21.99
2018-10-18T02:17:54.023Z,21.91
2018-10-18T02:18:53.937Z,22.05
2018-10-18T02:19:53.869Z,22.06
2018-10-18T02:20:53.823Z,21.92
2018-10-18T02:21:53.777Z,21.91
2018-10-18T02:22:53.731Z,21.92
2018-10-18T02:23:53.697Z,22.00
2018-10-18T02:24:53.670Z,22.00
2018-10-18T02:25:53.594Z,21.94
2018-10-18T02:26:53.548Z,21.96
2018-10-18T02:27:53.504Z,21.91
2018-10-18T02:28:53.459Z,21.92
2018-10-18T02:29:53.455Z,22.05
2018-10-18T02:30:53.376Z,22.02
2018-10-18T02:31:53.319Z,21.92
2018-10-18T02:32:53.273Z,21.94
2018-10-18T02:33:53.232Z,22.06
2018-10-18T02:34:53.184Z,21.96
2018-10-18T02:35:53.171Z,22.02
2018-10-18T02:36:53.090Z,21.98
2018-10-18T02:37:53.063Z,22.06
2018-10-18T02:38:52.998Z,21.92
2018-10-18T02:39:52.952Z,22.03
2018-10-18T02:40:52.906Z,21.98
2018-10-18T02:41:52.887Z,21.98
2018-10-18T02:42:52.815Z,21.96
2018-10-18T02:43:52.768Z,22.09
2018-10-18T02:44:52.722Z,21.99
2018-10-18T02:45:52.677Z,21.88
2018-10-18T02:46:52.631Z,21.99
2018-10-18T02:47:52.623Z,21.98
2018-10-18T02:48:52.863Z,21.99
2018-10-18T02:49:52.494Z,22.06
2018-10-18T02:50:52.448Z,21.94
2018-10-18T02:51:52.403Z,21.94
2018-10-18T02:52:52.356Z,22.00
2018-10-18T02:53:52.318Z,22.00
2018-10-18T02:54:52.265Z,21.98
2018-10-18T02:55:52.219Z,22.00
2018-10-18T02:56:52.172Z,21.98
2018-10-18T02:57:52.128Z,21.98
2018-10-18T02:58:52.081Z,22.02
2018-10-18T02:59:52.098Z,21.94
2018-10-18T03:00:51.993Z,21.90
2018-10-18T03:01:51.944Z,22.02
2018-10-18T03:02:51.908Z,21.94
2018-10-18T03:03:51.855Z,21.91
2018-10-18T03:04:51.806Z,21.92
2018-10-18T03:05:51.761Z,21.94
2018-10-18T03:06:51.716Z,22.06
2018-10-18T03:07:51.668Z,22.05
2018-10-18T03:08:51.623Z,22.03
2018-10-18T03:09:51.577Z,21.94
2018-10-18T03:10:51.532Z,21.99
2018-10-18T03:11:51.506Z,22.00
2018-10-18T03:12:51.451Z,22.05
2018-10-18T03:13:51.394Z,21.96
2018-10-18T03:14:51.347Z,21.99
2018-10-18T03:15:51.339Z,22.05
2018-10-18T03:16:51.256Z,22.03
2018-10-18T03:17:51.212Z,22.03
2018-10-18T03:18:51.165Z,22.03
2018-10-18T03:19:51.121Z,21.99
2018-10-18T03:20:51.073Z,21.96
2018-10-18T03:21:51.027Z,21.99
2018-10-18T03:22:50.981Z,21.84
2018-10-18T03:23:50.936Z,22.02
2018-10-18T03:24:50.890Z,22.06
2018-10-18T03:25:50.859Z,21.98
2018-10-18T03:26:50.798Z,22.02
2018-10-18T03:27:50.753Z,22.00
2018-10-18T03:28:50.706Z,21.98
2018-10-18T03:29:50.661Z,22.06
2018-10-18T03:30:50.614Z,21.98
2018-10-18T03:31:50.569Z,21.98
2018-10-18T03:32:50.523Z,22.06
2018-10-18T03:33:50.477Z,22.03
2018-10-18T03:34:50.431Z,21.99
2018-10-18T03:35:50.386Z,21.99
2018-10-18T03:36:50.339Z,21.90
2018-10-18T03:37:50.293Z,21.88
2018-10-18T03:38:50.248Z,22.00
2018-10-18T03:39:50.203Z,21.98
2018-10-18T03:40:50.156Z,22.00
2018-10-18T03:41:50.111Z,22.00
2018-10-18T03:42:50.064Z,21.99
2018-10-18T03:43:50.019Z,21.98
2018-10-18T03:44:49.972Z,21.90
2018-10-18T03:45:49.933Z,21.90
2018-10-18T03:46:49.881Z,22.03
2018-10-18T03:47:49.835Z,21.96
2018-10-18T03:48:49.788Z,22.03
2018-10-18T03:49:49.746Z,21.98
2018-10-18T03:50:49.697Z,21.92
2018-10-18T03:51:49.652Z,21.99
2018-10-18T03:52:49.605Z,21.82
2018-10-18T03:53:49.564Z,21.90
2018-10-18T03:54:49.514Z,22.02
2018-10-18T03:55:49.468Z,21.99
2018-10-18T03:56:49.429Z,21.99
2018-10-18T03:57:49.376Z,21.91
2018-10-18T03:58:49.330Z,21.99
2018-10-18T03:59:49.489Z,21.88
2018-10-18T04:00:49.240Z,21.91
2018-10-18T04:01:49.195Z,21.99
2018-10-18T04:02:49.148Z,21.94
2018-10-18T04:03:49.101Z,21.94
2018-10-18T04:04:49.058Z,21.90
2018-10-18T04:05:49.009Z,21.92
2018-10-18T04:06:48.964Z,21.98
2018-10-18T04:07:48.918Z,21.99
2018-10-18T04:08:48.871Z,22.00
2018-10-18T04:09:48.826Z,21.94
2018-10-18T04:10:48.830Z,21.83
2018-10-18T04:11:48.734Z,22.02
2018-10-18T04:12:48.793Z,21.91
2018-10-18T04:13:48.644Z,21.96
2018-10-18T04:14:48.597Z,21.88
2018-10-18T04:15:48.557Z,22.00
2018-10-18T04:16:48.505Z,22.02
2018-10-18T04:17:48.480Z,22.03
2018-10-18T04:18:48.414Z,21.91
2018-10-18T04:19:48.368Z,21.98
2018-10-18T04:20:48.321Z,21.96
2018-10-18T04:21:48.275Z,21.99
2018-10-18T04:22:48.231Z,21.98
2018-10-18T04:23:48.184Z,22.02
2018-10-18T04:24:48.138Z,21.94
2018-10-18T04:25:48.094Z,21.98
2018-10-18T04:26:48.047Z,21.99
2018-10-18T04:27:48.001Z,21.98
2018-10-18T04:28:47.954Z,21.98
2018-10-18T04:29:47.910Z,21.98
2018-10-18T04:30:47.864Z,21.88
2018-10-18T04:31:47.824Z,21.86
2018-10-18T04:32:47.778Z,21.99
2018-10-18T04:33:47.725Z,21.86
2018-10-18T04:34:47.680Z,21.92
2018-10-18T04:35:47.634Z,21.98
2018-10-18T04:36:47.588Z,21.83
2018-10-18T04:37:47.542Z,21.86
2018-10-18T04:38:47.497Z,21.99
2018-10-18T04:39:47.451Z,21.88
2018-10-18T04:40:47.404Z,21.92
2018-10-18T04:41:47.359Z,22.00
2018-10-18T04:42:47.313Z,21.99
2018-10-18T04:43:47.267Z,21.91
2018-10-18T04:44:47.220Z,21.91
2018-10-18T04:45:47.174Z,21.99
2018-10-18T04:46:47.129Z,21.96
2018-10-18T04:47:47.214Z,22.00
2018-10-18T04:48:47.054Z,21.88
2018-10-18T04:49:46.991Z,21.92
2018-10-18T04:50:46.945Z,21.96
2018-10-18T04:51:46.900Z,21.83
2018-10-18T04:52:46.853Z,21.92
2018-10-18T04:53:46.809Z,21.86
2018-10-18T04:54:46.763Z,21.91
2018-10-18T04:55:46.717Z,21.88
2018-10-18T04:56:46.754Z,21.96
2018-10-18T04:57:46.624Z,21.88
2018-10-18T04:58:46.581Z,21.91
2018-10-18T04:59:46.533Z,21.86
2018-10-18T05:00:46.486Z,21.96
2018-10-18T05:01:46.440Z,21.88
2018-10-18T05:02:46.452Z,21.90
2018-10-18T05:03:46.350Z,21.92
2018-10-18T05:04:46.309Z,21.86
2018-10-18T05:05:46.257Z,21.90
2018-10-18T05:06:46.212Z,21.88
2018-10-18T05:07:46.166Z,21.86
2018-10-18T05:08:46.121Z,21.96
2018-10-18T05:09:46.074Z,21.88
2018-10-18T05:10:46.028Z,21.94
2018-10-18T05:11:45.982Z,21.88
2018-10-18T05:12:45.971Z,21.84
2018-10-18T05:13:45.890Z,21.86
2018-10-18T05:14:45.844Z,21.92
2018-10-18T05:15:45.849Z,21.90
2018-10-18T05:16:45.753Z,21.92
2018-10-18T05:17:45.707Z,21.96
2018-10-18T05:18:45.661Z,21.92
2018-10-18T05:19:45.616Z,21.88
2018-10-18T05:20:45.569Z,21.88
2018-10-18T05:21:45.524Z,21.84
2018-10-18T05:22:45.478Z,21.84
2018-10-18T05:23:45.484Z,21.84
2018-10-18T05:24:45.386Z,21.77
2018-10-18T05:25:45.340Z,21.90
2018-10-18T05:26:45.294Z,21.90
2018-10-18T05:27:45.249Z,21.98
2018-10-18T05:28:45.202Z,21.83
2018-10-18T05:29:45.157Z,21.90
2018-10-18T05:30:45.111Z,21.84
2018-10-18T05:31:45.154Z,21.92
2018-10-18T05:32:45.019Z,21.98
2018-10-18T05:33:44.973Z,21.84
2018-10-18T05:34:44.928Z,21.83
2018-10-18T05:35:44.882Z,21.86
2018-10-18T05:36:44.835Z,21.96
2018-10-18T05:37:44.911Z,21.83
2018-10-18T05:38:44.744Z,21.91
2018-10-18T05:39:44.699Z,21.88
2018-10-18T05:40:44.651Z,21.84
2018-10-18T05:41:44.606Z,21.90
2018-10-18T05:42:44.560Z,21.82
2018-10-18T05:43:44.515Z,21.94
2018-10-18T05:44:44.468Z,21.96
2018-10-18T05:45:44.423Z,21.92
2018-10-18T05:46:44.489Z,21.88
2018-10-18T05:47:44.336Z,21.92
2018-10-18T05:48:44.292Z,21.90
2018-10-18T05:49:44.240Z,21.91
2018-10-18T05:50:44.197Z,21.99
2018-10-18T05:51:44.148Z,21.84
2018-10-18T05:52:44.102Z,21.84
2018-10-18T05:53:44.222Z,21.86
2018-10-18T05:54:44.010Z,21.84
2018-10-18T05:55:43.968Z,21.88
2018-10-18T05:56:43.918Z,21.84
2018-10-18T05:57:43.872Z,21.96
2018-10-18T05:58:43.827Z,21.90
2018-10-18T05:59:43.781Z,21.88
2018-10-18T06:00:43.735Z,21.92
2018-10-18T06:01:44.006Z,21.96
2018-10-18T06:02:43.644Z,21.91
2018-10-18T06:03:43.598Z,21.99
2018-10-18T06:04:43.552Z,22.00
2018-10-18T06:05:43.506Z,21.92
2018-10-18T06:06:43.461Z,21.86
2018-10-18T06:07:43.419Z,21.88
2018-10-18T06:08:43.368Z,21.80
2018-10-18T06:09:43.324Z,21.91
2018-10-18T06:10:43.281Z,21.91
2018-10-18T06:11:43.231Z,21.90
2018-10-18T06:12:43.185Z,21.96
2018-10-18T06:13:43.141Z,21.88
2018-10-18T06:14:43.093Z,21.98
2018-10-18T06:15:43.047Z,21.96
2018-10-18T06:16:43.003Z,22.03
2018-10-18T06:17:42.957Z,22.03
2018-10-18T06:18:42.919Z,21.94
2018-10-18T06:19:42.867Z,21.98
2018-10-18T06:20:42.819Z,21.99
2018-10-18T06:21:42.772Z,21.98
2018-10-18T06:22:42.740Z,21.99
2018-10-18T06:23:42.681Z,22.02
2018-10-18T06:24:42.637Z,22.02
2018-10-18T06:25:42.589Z,21.92
2018-10-18T06:26:42.543Z,21.99
2018-10-18T06:27:42.497Z,21.92
2018-10-18T06:28:42.451Z,22.06
2018-10-18T06:29:42.405Z,22.06
2018-10-18T06:30:42.360Z,22.02
2018-10-18T06:31:42.314Z,21.98
2018-10-18T06:32:42.271Z,21.96
2018-10-18T06:33:42.221Z,22.05
2018-10-18T06:34:42.176Z,22.03
2018-10-18T06:35:42.130Z,22.10
2018-10-18T06:36:42.084Z,22.10
2018-10-18T06:37:42.039Z,22.10
2018-10-18T06:38:41.992Z,22.17
2018-10-18T06:39:41.947Z,22.22
2018-10-18T06:40:41.900Z,22.30
2018-10-18T06:41:41.857Z,22.30
2018-10-18T06:42:41.809Z,22.36
2018-10-18T06:43:41.764Z,22.33
2018-10-18T06:44:41.717Z,22.27
2018-10-18T06:45:41.672Z,22.39
2018-10-18T06:46:41.690Z,22.28
2018-10-18T06:47:41.705Z,22.35
2018-10-18T06:48:41.538Z,22.35
2018-10-18T06:49:41.488Z,22.24
2018-10-18T06:50:41.443Z,22.39
2018-10-18T06:51:41.397Z,22.40
2018-10-18T06:52:41.352Z,22.43
2018-10-18T06:53:41.306Z,22.39
2018-10-18T06:54:41.260Z,22.45
2018-10-18T06:55:41.214Z,22.54
2018-10-18T06:56:41.168Z,22.49
2018-10-18T06:57:41.121Z,22.47
2018-10-18T06:58:41.078Z,22.57
2018-10-18T06:59:41.081Z,22.43
2018-10-18T07:00:40.984Z,22.58
2018-10-18T07:01:40.938Z,22.57
2018-10-18T07:02:40.908Z,22.57
2018-10-18T07:03:40.848Z,22.52
2018-10-18T07:04:40.801Z,22.62
2018-10-18T07:05:40.756Z,22.62
2018-10-18T07:06:40.710Z,22.68
2018-10-18T07:07:40.665Z,22.67
2018-10-18T07:08:40.618Z,22.68
2018-10-18T07:09:40.623Z,22.72
2018-10-18T07:10:40.546Z,22.77
2018-10-18T07:11:40.482Z,22.79
2018-10-18T07:12:40.439Z,22.80
2018-10-18T07:13:40.390Z,22.82
2018-10-18T07:14:40.345Z,22.86
2018-10-18T07:15:40.299Z,22.83
2018-10-18T07:16:40.253Z,22.88
2018-10-18T07:17:40.323Z,22.80
2018-10-18T07:18:40.162Z,22.91
2018-10-18T07:19:40.117Z,22.98
2018-10-18T07:20:40.070Z,23.00
2018-10-18T07:21:40.035Z,22.97
2018-10-18T07:22:39.980Z,23.00
2018-10-18T07:23:39.939Z,22.97
2018-10-18T07:24:39.889Z,22.95
2018-10-18T07:25:39.843Z,23.00
2018-10-18T07:26:39.801Z,23.00
2018-10-18T07:27:39.752Z,23.02
2018-10-18T07:28:39.707Z,23.12
2018-10-18T07:29:39.662Z,23.15
2018-10-18T07:30:39.616Z,23.04
2018-10-18T07:31:39.571Z,23.12
2018-10-18T07:32:39.524Z,23.07
2018-10-18T07:33:39.479Z,23.12
2018-10-18T07:34:39.434Z,22.97
2018-10-18T07:35:39.388Z,22.92
2018-10-18T07:36:39.373Z,22.82
2018-10-18T07:37:39.298Z,22.88
2018-10-18T07:38:39.253Z,22.86
2018-10-18T07:39:39.209Z,22.77
2018-10-18T07:40:39.161Z,22.68
2018-10-18T07:41:39.116Z,22.73
2018-10-18T07:42:39.071Z,22.60
2018-10-18T07:43:39.026Z,22.64
2018-10-18T07:44:38.979Z,22.51
2018-10-18T07:45:38.985Z,22.60
2018-10-18T07:46:38.937Z,22.55
2018-10-18T07:47:38.894Z,22.60
2018-10-18T07:48:38.798Z,22.45
2018-10-18T07:49:38.752Z,22.47
2018-10-18T07:50:38.708Z,22.45
2018-10-18T07:51:38.662Z,22.46
2018-10-18T07:52:38.617Z,22.51
2018-10-18T07:53:38.589Z,22.47
2018-10-18T07:54:38.525Z,22.45
2018-10-18T07:55:38.480Z,22.60
2018-10-18T07:56:38.434Z,22.58
2018-10-18T07:57:38.388Z,22.57
2018-10-18T07:58:38.347Z,22.68
2018-10-18T07:59:38.298Z,22.75
2018-10-18T08:00:38.362Z,22.75
2018-10-18T08:01:38.207Z,22.82
2018-10-18T08:02:38.162Z,22.82
2018-10-18T08:03:38.119Z,22.80
2018-10-18T08:04:38.071Z,22.83
2018-10-18T08:05:38.026Z,22.85
2018-10-18T08:06:37.981Z,22.94
2018-10-18T08:07:37.936Z,22.85
2018-10-18T08:08:37.890Z,22.94
2018-10-18T08:09:37.845Z,22.95
2018-10-18T08:10:37.803Z,22.98
2018-10-18T08:11:37.757Z,23.00
2018-10-18T08:12:37.770Z,23.00
2018-10-18T08:13:37.665Z,22.98
2018-10-18T08:14:37.620Z,22.98
2018-10-18T08:15:37.575Z,23.10
2018-10-18T08:16:37.554Z,23.12
2018-10-18T08:17:37.485Z,23.16
2018-10-18T08:18:37.440Z,23.09
2018-10-18T08:19:37.395Z,23.12
2018-10-18T08:20:37.350Z,23.12
2018-10-18T08:21:37.305Z,23.12
2018-10-18T08:22:37.329Z,23.13
2018-10-18T08:23:37.215Z,23.12
2018-10-18T08:24:37.169Z,23.19
2018-10-18T08:25:37.126Z,23.15
2018-10-18T08:26:37.080Z,23.10
2018-10-18T08:27:37.035Z,23.16
2018-10-18T08:28:36.990Z,23.16
2018-10-18T08:29:36.944Z,23.10
2018-10-18T08:30:36.902Z,23.07
2018-10-18T08:31:37.220Z,23.12
2018-10-18T08:32:36.809Z,23.17
2018-10-18T08:33:36.765Z,23.02
2018-10-18T08:34:36.720Z,23.12
2018-10-18T08:35:36.676Z,23.02
2018-10-18T08:36:36.629Z,23.02
2018-10-18T08:37:36.684Z,22.95
2018-10-18T08:38:36.540Z,23.05
2018-10-18T08:39:36.494Z,23.02
2018-10-18T08:40:36.449Z,23.10
2018-10-18T08:41:36.404Z,23.16
2018-10-18T08:42:36.359Z,23.09
2018-10-18T08:43:36.314Z,23.09
2018-10-18T08:44:36.338Z,23.13
2018-10-18T08:45:36.223Z,23.15
2018-10-18T08:46:36.177Z,23.12
2018-10-18T08:47:36.133Z,23.05
2018-10-18T08:48:36.088Z,23.05
2018-10-18T08:49:36.044Z,23.05
2018-10-18T08:50:36.021Z,23.22
2018-10-18T08:51:35.952Z,23.07
2018-10-18T08:52:35.906Z,23.10
2018-10-18T08:53:35.867Z,23.12
2018-10-18T08:54:35.816Z,23.09
2018-10-18T08:55:35.907Z,23.10
2018-10-18T08:56:35.726Z,23.13
2018-10-18T08:57:35.680Z,23.04
2018-10-18T08:58:35.634Z,23.04
2018-10-18T08:59:35.590Z,22.97
2018-10-18T09:00:35.544Z,22.95
2018-10-18T09:01:35.499Z,22.92
2018-10-18T09:02:35.454Z,22.97
2018-10-18T09:03:35.408Z,22.94
2018-10-18T09:04:35.362Z,23.04
2018-10-18T09:05:35.317Z,23.00
2018-10-18T09:06:35.272Z,22.91
2018-10-18T09:07:35.228Z,22.88
2018-10-18T09:08:35.193Z,22.91
2018-10-18T09:09:35.136Z,22.86
2018-10-18T09:10:35.090Z,22.88
2018-10-18T09:11:35.046Z,22.82
2018-10-18T09:12:34.999Z,22.88
2018-10-18T09:13:34.954Z,22.88
2018-10-18T09:14:34.909Z,22.83
2018-10-18T09:15:34.864Z,22.86
2018-10-18T09:16:34.817Z,22.83
2018-10-18T09:17:34.776Z,22.86
2018-10-18T09:18:34.728Z,22.82
2018-10-18T09:19:34.683Z,22.86
2018-10-18T09:20:34.637Z,22.88
2018-10-18T09:21:34.592Z,22.85
2018-10-18T09:22:34.546Z,22.83
2018-10-18T09:23:34.508Z,22.82
2018-10-18T09:24:34.455Z,22.82
2018-10-18T09:25:34.411Z,22.85
2018-10-18T09:26:34.366Z,22.86
2018-10-18T09:27:34.320Z,22.86
2018-10-18T09:28:34.274Z,22.80
2018-10-18T09:29:34.228Z,22.86
2018-10-18T09:30:34.183Z,22.86
2018-10-18T09:31:34.138Z,22.85
2018-10-18T09:32:34.092Z,22.79
2018-10-18T09:33:34.047Z,22.70
2018-10-18T09:34:34.002Z,22.85
2018-10-18T09:35:33.957Z,22.77
2018-10-18T09:36:33.913Z,22.86
2018-10-18T09:37:33.865Z,22.86
2018-10-18T09:38:33.913Z,22.80
2018-10-18T09:39:33.776Z,22.75
2018-10-18T09:40:33.729Z,22.80
2018-10-18T09:41:33.685Z,22.80
2018-10-18T09:42:33.638Z,22.85
2018-10-18T09:43:33.594Z,22.80
2018-10-18T09:44:33.591Z,22.80
2018-10-18T09:45:33.502Z,22.77
2018-10-18T09:46:33.457Z,22.76
2018-10-18T09:47:33.411Z,22.79
2018-10-18T09:48:33.415Z,22.79
2018-10-18T09:49:33.321Z,22.80
2018-10-18T09:50:33.275Z,22.73
2018-10-18T09:51:33.230Z,22.77
2018-10-18T09:52:33.184Z,22.76
2018-10-18T09:53:33.141Z,22.73
2018-10-18T09:54:33.122Z,22.79
2018-10-18T09:55:33.193Z,22.76
2018-10-18T09:56:33.002Z,22.70
2018-10-18T09:57:32.957Z,22.73
2018-10-18T09:58:32.912Z,22.72
2018-10-18T09:59:32.868Z,22.70
2018-10-18T10:00:32.821Z,22.68
2018-10-18T10:01:32.775Z,22.73
2018-10-18T10:02:32.738Z,22.70
2018-10-18T10:03:32.686Z,22.73
2018-10-18T10:04:32.689Z,22.72
2018-10-18T10:05:32.593Z,22.68
2018-10-18T10:06:32.547Z,22.64
2018-10-18T10:07:32.503Z,22.65
2018-10-18T10:08:32.456Z,22.68
2018-10-18T10:09:32.412Z,22.72
2018-10-18T10:10:32.366Z,22.70
2018-10-18T10:11:32.389Z,22.58
2018-10-18T10:12:32.275Z,22.65
2018-10-18T10:13:32.250Z,22.72
2018-10-18T10:14:32.185Z,22.60
2018-10-18T10:15:32.139Z,22.62
2018-10-18T10:16:32.093Z,22.68
2018-10-18T10:17:32.054Z,22.61
2018-10-18T10:18:32.004Z,22.65
2018-10-18T10:19:31.958Z,22.62
2018-10-18T10:20:31.913Z,22.65
2018-10-18T10:21:31.866Z,22.62
2018-10-18T10:22:31.821Z,22.57
2018-10-18T10:23:31.776Z,22.62
2018-10-18T10:24:31.762Z,22.54
2018-10-18T10:25:31.685Z,22.55
2018-10-18T10:26:31.639Z,22.61
2018-10-18T10:27:31.594Z,22.51
2018-10-18T10:28:31.548Z,22.61
2018-10-18T10:29:31.503Z,22.57
2018-10-18T10:30:31.581Z,22.58
2018-10-18T10:31:31.412Z,22.57
2018-10-18T10:32:31.366Z,22.57
2018-10-18T10:33:31.471Z,22.61
2018-10-18T10:34:31.279Z,22.57
2018-10-18T10:35:31.325Z,22.52
2018-10-18T10:36:31.184Z,22.57
2018-10-18T10:37:31.139Z,22.60
2018-10-18T10:38:31.116Z,22.57
2018-10-18T10:39:31.049Z,22.61
2018-10-18T10:40:31.002Z,22.62
2018-10-18T10:41:30.957Z,22.64
2018-10-18T10:42:30.913Z,22.58
2018-10-18T10:43:30.868Z,22.52
2018-10-18T10:44:30.865Z,22.60
2018-10-18T10:45:30.789Z,22.58
2018-10-18T10:46:30.730Z,22.62
2018-10-18T10:47:30.684Z,22.62
2018-10-18T10:48:30.643Z,22.64
2018-10-18T10:49:30.593Z,22.60
2018-10-18T10:50:30.548Z,22.62
2018-10-18T10:51:30.503Z,22.62
2018-10-18T10:52:30.457Z,22.54
2018-10-18T10:53:30.411Z,22.65
2018-10-18T10:54:30.366Z,22.55
2018-10-18T10:55:30.321Z,22.57
2018-10-18T10:56:30.275Z,22.64
2018-10-18T10:57:30.230Z,22.54
2018-10-18T10:58:30.187Z,22.60
2018-10-18T10:59:30.140Z,22.58
2018-10-18T11:00:30.094Z,22.62
2018-10-18T11:01:30.048Z,22.60
2018-10-18T11:02:30.013Z,22.52
2018-10-18T11:03:29.958Z,22.60
2018-10-18T11:04:29.919Z,22.62
2018-10-18T11:05:29.866Z,22.60
2018-10-18T11:06:29.821Z,22.60
2018-10-18T11:07:29.776Z,22.57
2018-10-18T11:08:29.729Z,22.60
2018-10-18T11:09:29.943Z,22.60
2018-10-18T11:10:29.645Z,22.55
2018-10-18T11:11:29.594Z,22.54
2018-10-18T11:12:29.678Z,22.58
2018-10-18T11:13:29.502Z,22.57
2018-10-18T11:14:29.457Z,22.57
2018-10-18T11:15:29.412Z,22.57
2018-10-18T11:16:29.366Z,22.58
2018-10-18T11:17:29.321Z,22.61
2018-10-18T11:18:29.275Z,22.58
2018-10-18T11:19:29.230Z,22.62
2018-10-18T11:20:29.184Z,22.58
2018-10-18T11:21:29.203Z,22.61
2018-10-18T11:22:29.096Z,22.62
2018-10-18T11:23:29.049Z,22.49
2018-10-18T11:24:29.042Z,22.58
2018-10-18T11:25:28.957Z,22.55
2018-10-18T11:26:28.912Z,22.58
2018-10-18T11:27:28.866Z,22.57
2018-10-18T11:28:28.820Z,22.49
2018-10-18T11:29:28.775Z,22.54
2018-10-18T11:30:28.730Z,22.47
2018-10-18T11:31:28.684Z,22.47
2018-10-18T11:32:28.638Z,22.49
2018-10-18T11:33:28.593Z,22.52
2018-10-18T11:34:28.635Z,22.46
2018-10-18T11:35:28.503Z,22.54
2018-10-18T11:36:28.457Z,22.47
2018-10-18T11:37:28.410Z,22.52
2018-10-18T11:38:28.366Z,22.46
2018-10-18T11:39:28.321Z,22.47
2018-10-18T11:40:28.282Z,22.55
2018-10-18T11:41:28.229Z,22.47
2018-10-18T11:42:28.197Z,22.46
2018-10-18T11:43:28.138Z,22.49
2018-10-18T11:44:28.092Z,22.49
2018-10-18T11:45:28.047Z,22.47
2018-10-18T11:46:28.001Z,22.47
2018-10-18T11:47:27.961Z,22.47
2018-10-18T11:48:27.909Z,22.49
2018-10-18T11:49:27.865Z,22.52
2018-10-18T11:50:27.820Z,22.45
2018-10-18T11:51:27.817Z,22.51
2018-10-18T11:52:27.729Z,22.47
2018-10-18T11:53:27.683Z,22.47
2018-10-18T11:54:27.637Z,22.49
2018-10-18T11:55:27.592Z,22.43
2018-10-18T11:56:27.546Z,22.52
2018-10-18T11:57:27.501Z,22.46
2018-10-18T11:58:27.457Z,22.51
2018-10-18T11:59:27.410Z,22.47
2018-10-18T12:00:27.364Z,22.46
2018-10-18T12:01:27.345Z,22.52
2018-10-18T12:02:27.277Z,22.49
2018-10-18T12:03:27.228Z,22.54
2018-10-18T12:04:27.181Z,22.45
2018-10-18T12:05:27.138Z,22.52
2018-10-18T12:06:27.091Z,22.55
2018-10-18T12:07:27.046Z,22.51
2018-10-18T12:08:27.000Z,22.47
2018-10-18T12:09:26.954Z,22.49
2018-10-18T12:10:26.911Z,22.46
2018-10-18T12:11:26.863Z,22.51
2018-10-18T12:12:26.819Z,22.51
2018-10-18T12:13:26.772Z,22.49
2018-10-18T12:14:26.726Z,22.46
2018-10-18T12:15:26.731Z,22.49
2018-10-18T12:16:26.636Z,22.46
2018-10-18T12:17:26.590Z,22.46
2018-10-18T12:18:26.547Z,22.45
2018-10-18T12:19:26.499Z,22.43
2018-10-18T12:20:26.453Z,22.40
2018-10-18T12:21:26.407Z,22.46
2018-10-18T12:22:26.362Z,22.42
2018-10-18T12:23:26.317Z,22.45
2018-10-18T12:24:26.270Z,22.51
2018-10-18T12:25:26.225Z,22.45
2018-10-18T12:26:26.180Z,22.51
2018-10-18T12:27:26.135Z,22.49
2018-10-18T12:28:26.089Z,22.47
2018-10-18T12:29:26.043Z,22.49
2018-10-18T12:30:26.004Z,22.52
2018-10-18T12:31:25.954Z,22.47
2018-10-18T12:32:25.907Z,22.47
2018-10-18T12:33:25.861Z,22.46
2018-10-18T12:34:25.815Z,22.46
2018-10-18T12:35:25.770Z,22.49
2018-10-18T12:36:25.724Z,22.46
2018-10-18T12:37:25.679Z,22.49
2018-10-18T12:38:25.635Z,22.43
2018-10-18T12:39:25.616Z,22.47
2018-10-18T12:40:25.657Z,22.42
2018-10-18T12:41:25.806Z,22.47
2018-10-18T12:42:25.452Z,22.43
2018-10-18T12:43:25.406Z,22.45
2018-10-18T12:44:25.360Z,22.46
2018-10-18T12:45:25.315Z,22.42
2018-10-18T12:46:25.269Z,22.49
2018-10-18T12:47:25.229Z,22.47
2018-10-18T12:48:25.340Z,22.49
2018-10-18T12:49:25.133Z,22.49
2018-10-18T12:50:25.089Z,22.45
2018-10-18T12:51:25.042Z,22.47